Latest Weather Observations for Bedout Island

IDW60801

Issued at 4:05 pm WST Thursday 24 April 2014 (issued every 30 minutes, with the page automatically refreshed every 10 minutes)

About weather observations | Map of weather stations | Latest weather observations for WA | Other Formats
Station Details ID: 004100 Name: BEDOUT ISLAND Lat: -19.59 Lon: 119.10 Height: 8.6 m
Data from the previous 72 hours. | See also: Recent months for locations in Western Australia
Date/Time
WST
Temp
°C
App
Temp
°C
Dew
Point
Rel
Hum
%
Delta-T
°C
Wind Press
QNH
hPa
Press
MSL
hPa
Rain
since 9 am
mm
Dir
 
Spd
km/h
Gust
km/h
Spd
kts
Gust
kts
24/04:00pm 31.3 33.9 22.0 57 6.3 W 11 13 6 7 1007.8 - -
24/03:30pm 32.3 35.2 21.8 54 7.1 W 9 11 5 6 1007.8 - -
24/03:00pm 31.8 34.1 21.3 53 7.1 W 11 13 6 7 1007.9 1007.8 -
24/02:30pm 31.7 34.1 20.9 52 7.2 WSW 9 11 5 6 1008.1 - -
24/02:00pm 32.0 34.4 20.9 52 7.4 WSW 9 11 5 6 1008.3 - -
24/01:30pm 32.8 35.1 20.7 49 8.1 WSW 9 11 5 6 1008.8 - -
24/01:00pm 32.9 35.1 21.1 50 7.9 SW 11 13 6 7 1009.0 - -
24/12:30pm 31.8 33.6 20.4 51 7.6 SW 11 13 6 7 1009.3 - -
24/12:00pm 31.9 33.4 20.5 51 7.6 SW 13 15 7 8 1009.6 1009.5 -
24/11:30am 32.3 33.8 21.2 52 7.5 WSW 15 17 8 9 1009.9 - -
24/10:30am 32.0 32.9 20.9 52 7.4 SW 17 20 9 11 1010.7 - -
24/10:00am 31.4 32.3 20.0 50 7.5 WSW 15 19 8 10 1011.1 - -
24/09:30am 30.7 31.8 21.2 57 6.4 SW 17 19 9 10 1011.2 - -
24/09:00am 30.4 31.6 20.6 55 6.5 WSW 15 19 8 10 1011.3 1011.2 -
24/08:30am 29.5 30.2 20.4 58 6.0 WSW 17 19 9 10 1011.0 - -
24/08:00am 28.9 30.2 20.1 59 5.8 WSW 13 17 7 9 1010.8 - -
24/07:30am 27.6 29.1 19.7 62 5.1 S 11 13 6 7 1010.6 - -
24/07:00am 26.3 27.4 19.7 67 4.3 SSE 13 15 7 8 1010.3 - -
24/06:30am 25.3 25.7 19.9 72 3.5 S 17 19 9 10 1009.9 - -
24/06:00am 25.1 25.8 20.4 75 3.1 S 17 20 9 11 1009.6 1009.5 -
24/05:30am 25.6 26.8 22.1 81 2.3 S 19 22 10 12 1009.5 - -
24/05:00am 25.7 27.3 22.8 84 2.0 S 19 22 10 12 1009.4 - -
24/04:30am 25.8 27.7 23.5 87 1.6 S 19 20 10 11 1009.3 - -
24/04:00am 25.7 29.0 23.9 90 1.2 S 13 17 7 9 1009.2 - -
24/03:30am 26.0 29.5 24.2 90 1.2 S 13 15 7 8 1009.2 - -
24/03:00am 26.4 29.9 24.2 88 1.5 S 13 15 7 8 1009.2 1009.1 -
24/02:30am 26.5 29.0 23.8 85 1.9 S 17 19 9 10 1009.3 - -
24/02:00am 26.5 28.7 23.2 82 2.2 S 17 19 9 10 1009.5 - -
24/01:30am 26.6 29.1 23.1 81 2.4 SSW 15 17 8 9 1009.8 - -
24/01:00am 26.7 29.2 23.2 81 2.4 SW 15 17 8 9 1010.0 - -
24/12:30am 26.6 29.5 23.1 81 2.4 SW 13 15 7 8 1010.1 - -
24/12:00am 26.9 30.0 23.6 82 2.3 SW 13 17 7 9 1010.4 1010.3 -
 
Date/Time
WST
Temp
°C
App
Temp
°C
Dew
Point
Rel
Hum
%
Delta-T
°C
Wind Press
QNH
hPa
Press
MSL
hPa
Rain
since 9 am
mm
Dir
 
Spd
km/h
Gust
km/h
Spd
kts
Gust
kts
23/11:30pm 26.9 29.9 23.4 81 2.4 SW 13 15 7 8 1010.6 - -
23/11:00pm 27.2 29.9 23.4 80 2.6 WSW 15 19 8 10 1010.8 - -
23/10:30pm 27.6 29.6 23.6 79 2.7 WSW 19 20 10 11 1010.9 - -
23/10:00pm 27.7 30.1 23.7 79 2.7 W 17 19 9 10 1010.9 - -
23/09:30pm 27.8 29.9 23.8 79 2.8 W 19 20 10 11 1010.8 - -
23/09:00pm 28.0 29.8 24.2 80 2.6 W 22 24 12 13 1011.0 1010.9 -
23/08:30pm 28.0 30.2 24.2 80 2.6 W 20 22 11 12 1011.0 - -
23/08:00pm 28.0 30.0 24.0 79 2.8 W 20 22 11 12 1010.7 - -
23/07:30pm 28.1 30.2 23.7 77 3.0 W 19 20 10 11 1010.4 - -
23/07:00pm 28.3 30.0 23.4 75 3.4 W 20 22 11 12 1010.3 - -
23/06:30pm 28.2 30.5 22.7 72 3.7 W 15 17 8 9 1010.3 - -
23/06:00pm 28.4 30.4 22.2 69 4.2 W 15 17 8 9 1010.2 1010.1 -
23/05:30pm 29.3 31.2 22.0 64 4.9 WSW 15 15 8 8 1009.9 - -
23/05:00pm 30.5 32.7 21.8 59 5.9 W 13 17 7 9 1009.5 - -
23/04:30pm 31.1 33.2 22.4 60 5.9 W 15 17 8 9 1009.2 - -
23/04:00pm 31.6 33.5 22.0 56 6.5 W 15 17 8 9 1009.1 - -
23/03:30pm 31.9 33.8 22.0 55 6.7 W 15 17 8 9 1008.9 - -
23/03:00pm 32.2 33.8 21.4 53 7.3 W 15 19 8 10 1009.0 1008.9 -
23/02:30pm 33.0 34.1 21.2 50 8.0 WSW 17 19 9 10 1009.1 - -
23/02:00pm 32.5 33.7 20.7 49 7.9 W 15 19 8 10 1009.3 - -
23/01:30pm 32.5 34.2 21.7 53 7.3 W 15 17 8 9 1009.6 - -
23/01:00pm 32.0 33.8 21.8 54 6.9 W 15 17 8 9 1010.0 - -
23/12:30pm 32.8 33.9 21.3 50 7.8 W 17 19 9 10 1010.4 - -
23/12:00pm 31.9 34.3 22.9 59 6.2 W 15 17 8 9 1010.9 1010.8 -
23/11:30am 30.9 34.0 23.5 64 5.1 WSW 13 15 7 8 1011.3 - -
23/11:00am 30.1 34.3 24.7 73 3.8 WSW 11 13 6 7 1011.7 - -
23/10:30am 29.0 33.2 24.1 75 3.4 WSW 9 11 5 6 1012.2 - -
23/10:00am 28.8 33.2 24.4 77 3.1 SW 9 11 5 6 1012.6 - -
23/09:30am 28.3 32.2 24.3 79 2.8 S 11 15 6 8 1012.7 - -
23/09:00am 28.3 32.0 24.5 80 2.6 SSE 13 17 7 9 1012.7 1012.6 -
23/08:30am 27.5 31.1 24.3 83 2.2 SSE 13 15 7 8 1012.7 - -
23/08:00am 27.0 29.6 24.6 87 1.7 SSE 19 22 10 12 1012.6 - -
23/07:30am 26.9 29.6 24.7 88 1.5 S 19 22 10 12 1012.3 - -
23/07:00am 26.3 28.8 24.7 91 1.1 SSW 20 24 11 13 1011.8 - -
23/06:30am 26.3 29.5 24.9 92 1.0 S 17 20 9 11 1011.5 - -
23/06:00am 26.1 29.5 24.7 92 1.0 SSW 15 19 8 10 1011.3 1011.2 -
23/05:30am 26.1 29.6 24.9 93 0.8 S 15 17 8 9 1010.9 - -
23/05:00am 26.6 29.8 25.0 91 1.1 S 17 20 9 11 1010.9 - -
23/04:30am 26.9 29.2 24.4 86 1.7 SSW 20 24 11 13 1010.9 - -
23/04:00am 27.0 29.0 23.9 83 2.1 SSW 20 22 11 12 1010.9 - -
23/03:30am 26.9 29.2 23.4 81 2.4 SW 17 20 9 11 1010.9 - -
23/03:00am 27.0 28.9 23.5 81 2.4 SW 19 20 10 11 1010.9 1010.8 -
23/02:30am 26.9 29.2 23.4 81 2.4 SW 17 19 9 10 1010.9 - -
23/02:00am 27.0 29.1 23.7 82 2.3 SW 19 20 10 11 1011.2 - -
23/01:30am 27.2 29.3 24.1 83 2.1 SW 20 24 11 13 1011.4 - -
23/01:00am 27.2 29.2 23.9 82 2.3 SW 20 22 11 12 1011.7 - -
23/12:30am 27.2 29.1 23.7 81 2.4 WSW 20 22 11 12 1012.0 - -
23/12:00am 27.3 29.3 24.0 82 2.3 WSW 20 22 11 12 1012.2 1012.1 -
 
Date/Time
WST
Temp
°C
App
Temp
°C
Dew
Point
Rel
Hum
%
Delta-T
°C
Wind Press
QNH
hPa
Press
MSL
hPa
Rain
since 9 am
mm
Dir
 
Spd
km/h
Gust
km/h
Spd
kts
Gust
kts
22/11:30pm 27.2 29.1 23.7 81 2.4 WSW 20 22 11 12 1012.3 - -
22/11:00pm 27.2 29.4 23.9 82 2.3 W 19 22 10 12 1012.4 - -
22/10:30pm 27.1 28.7 23.3 80 2.6 W 20 24 11 13 1012.5 - -
22/10:00pm 27.4 29.2 23.6 80 2.6 W 20 22 11 12 1012.4 - -
22/09:30pm 27.6 29.3 23.4 78 2.9 W 20 24 11 13 1012.4 - -
22/09:00pm 27.7 28.7 22.9 75 3.3 W 22 24 12 13 1012.3 1012.2 -
22/08:30pm 27.9 29.4 23.1 75 3.3 W 20 22 11 12 1012.1 - -
22/08:00pm 28.0 29.2 22.5 72 3.7 W 20 22 11 12 1011.9 - -
22/07:30pm 28.1 29.4 22.6 72 3.7 WNW 20 22 11 12 1011.6 - -
22/07:00pm 28.1 29.1 22.1 70 4.0 W 20 22 11 12 1011.3 - -
22/06:30pm 28.4 28.8 21.7 67 4.5 W 22 24 12 13 1011.1 - -
22/06:00pm 28.4 29.0 21.4 66 4.7 W 20 22 11 12 1011.1 1011.0 -
22/05:30pm 29.2 30.2 21.7 64 5.0 WNW 19 20 10 11 1011.0 - -
22/05:00pm 30.2 31.3 21.3 59 6.0 WNW 17 19 9 10 1010.8 - -
22/04:30pm 31.0 32.5 21.2 56 6.6 W 15 17 8 9 1010.8 - -
22/04:00pm 31.7 33.5 21.2 53 7.1 W 13 15 7 8 1010.8 - -
22/03:30pm 31.9 33.7 21.1 52 7.2 W 13 15 7 8 1010.6 - -
22/03:00pm 31.8 33.5 21.0 52 7.2 W 13 15 7 8 1010.7 1010.6 -
22/02:30pm 32.2 33.8 20.8 51 7.6 W 13 15 7 8 1010.8 - -
22/02:00pm 31.8 33.4 20.7 51 7.4 W 13 15 7 8 1010.8 - -
22/01:30pm 32.3 34.0 20.9 51 7.6 W 13 15 7 8 1011.1 - -
22/01:00pm 31.3 33.7 21.5 56 6.6 W 11 13 6 7 1011.3 - -
22/12:30pm 30.7 34.0 22.6 62 5.5 W 9 11 5 6 1011.5 - -
22/12:00pm 31.6 36.1 22.9 60 6.0 E 4 7 2 4 1011.9 1011.8 -
22/11:30am 30.5 34.3 22.4 62 5.5 W 6 9 3 5 1012.3 - -
22/11:00am 30.3 34.5 23.5 67 4.7 SSW 7 11 4 6 1012.8 - -
22/10:30am 30.1 34.2 24.0 70 4.2 SSW 9 11 5 6 1013.2 - -
22/10:00am 30.2 34.6 25.0 73 3.7 SE 11 13 6 7 1013.4 - -
22/09:30am 29.8 33.2 24.7 74 3.6 SE 15 17 8 9 1013.5 - -
22/09:00am 29.7 33.8 25.2 77 3.2 SE 13 15 7 8 1013.5 1013.4 -
22/08:30am 28.6 32.3 25.2 82 2.4 SSE 15 19 8 10 1013.5 - -
22/08:00am 27.4 30.5 24.8 86 1.8 SSE 17 19 9 10 1013.3 - -
22/07:30am 26.4 29.2 25.0 92 1.0 SSE 19 22 10 12 1013.1 - -
22/07:00am 26.2 29.0 25.0 93 0.8 SSE 19 20 10 11 1012.8 - -
22/06:30am 25.8 29.3 24.8 94 0.7 S 15 17 8 9 1012.5 - -
22/06:00am 26.0 29.1 24.8 93 0.8 SSE 17 20 9 11 1012.1 1012.0 -
22/05:30am 26.3 29.3 24.7 91 1.1 SSE 17 19 9 10 1011.9 - -
22/05:00am 26.8 30.0 23.7 83 2.1 WSW 13 15 7 8 1011.6 - -
22/04:30am 26.7 30.7 23.8 84 2.0 W 9 17 5 9 1011.5 - -
22/04:00am 26.4 32.0 23.5 84 2.0 CALM 0 4 0 2 1011.4 - -
22/03:30am 26.5 32.1 23.6 84 2.0 CALM 0 4 0 2 1011.5 - -
22/03:00am 26.2 31.5 23.1 83 2.1 CALM 0 4 0 2 1011.3 1011.2 -
22/02:30am 26.4 31.8 23.3 83 2.1 CALM 0 4 0 2 1011.3 - -
22/02:00am 26.5 29.8 23.2 82 2.2 W 11 13 6 7 1011.4 - -
22/01:30am 26.5 29.7 23.0 81 2.4 WNW 11 11 6 6 1011.5 - -
22/01:00am 26.6 29.8 23.1 81 2.4 W 11 13 6 7 1011.7 - -
22/12:30am 26.7 29.6 23.2 81 2.4 W 13 15 7 8 1012.1 - -
22/12:00am 26.8 29.8 23.3 81 2.4 W 13 15 7 8 1012.2 1012.1 -
 
Date/Time
WST
Temp
°C
App
Temp
°C
Dew
Point
Rel
Hum
%
Delta-T
°C
Wind Press
QNH
hPa
Press
MSL
hPa
Rain
since 9 am
mm
Dir
 
Spd
km/h
Gust
km/h
Spd
kts
Gust
kts
21/11:30pm 26.8 29.9 23.5 82 2.3 W 13 15 7 8 1012.4 - -
21/11:00pm 26.6 29.0 22.9 80 2.5 W 15 15 8 8 1012.5 - -
21/10:30pm 26.7 29.0 22.8 79 2.6 W 15 17 8 9 1012.6 - -
21/10:00pm 26.7 28.7 23.0 80 2.5 W 17 19 9 10 1012.7 - -
21/09:30pm 26.5 28.8 22.8 80 2.5 WNW 15 17 8 9 1012.6 - -
21/09:00pm 26.8 29.3 23.1 80 2.5 WNW 15 17 8 9 1012.5 1012.4 -
21/08:30pm 26.8 29.1 22.8 79 2.7 WNW 15 15 8 8 1012.3 - -
21/08:00pm 27.2 29.0 22.6 76 3.1 WNW 17 17 9 9 1012.2 - -
21/07:30pm 27.3 29.7 22.9 77 3.0 NW 15 15 8 8 1011.9 - -
21/07:00pm 27.7 29.9 22.6 74 3.5 NW 15 17 8 9 1011.7 - -
21/06:30pm 27.7 29.4 22.4 73 3.6 NW 17 17 9 9 1011.5 - -
21/06:00pm 27.8 29.7 22.1 71 3.8 NW 15 17 8 9 1011.3 1011.2 -
21/05:30pm 28.9 31.1 22.6 69 4.3 NW 15 17 8 9 1011.2 - -
21/05:00pm 29.6 32.0 22.3 65 4.9 NW 13 17 7 9 1011.0 - -
21/04:30pm 30.2 33.2 22.6 63 5.2 NNW 11 15 6 8 1010.7 - -

Other Formats:

Comma delimited format used in spreadsheet applications
http://www.bom.gov.au/fwo/IDW60801/IDW60801.94310.axf

JavaScript Object Notation format (JSON) in row-major order
http://www.bom.gov.au/fwo/IDW60801/IDW60801.94310.json